Time;durP1;ratioP1;P1;durP2;ratioP2;P2;SDS_P1;SDS_P2;PMS_P1;PMS_P2;Temp;Humidity;BMP_temperature;BMP_pressure;BME280_temperature;BME280_humidity;BME280_pressure;Samples;Min_cycle;Max_cycle;Signal;HPM_P1;HPM_P2
2022/04/25 00:01:58;;;;;;;5.95;3.30;;;23.70;55.50;;;;;;5075828;28;20031;-65
2022/04/25 00:04:24;;;;;;;4.50;3.45;;;23.80;55.60;;;;;;5076544;28;20068;-66
2022/04/25 00:06:51;;;;;;;4.55;3.58;;;23.80;55.70;;;;;;5076044;28;20071;-66
2022/04/25 00:09:17;;;;;;;8.43;3.95;;;23.80;55.80;;;;;;5063107;28;20055;-66
2022/04/25 00:11:43;;;;;;;4.95;3.53;;;23.60;55.80;;;;;;5076370;28;20118;-66
2022/04/25 00:14:11;;;;;;;6.70;3.35;;;23.70;56.00;;;;;;5076702;28;20072;-66
2022/04/25 00:16:37;;;;;;;4.47;3.03;;;23.80;56.00;;;;;;5076726;28;20043;-66
2022/04/25 00:19:03;;;;;;;9.20;3.17;;;23.70;56.00;;;;;;5076415;28;20051;-66
2022/04/25 00:21:29;;;;;;;4.88;3.58;;;23.90;56.10;;;;;;5076452;28;20033;-66
2022/04/25 00:23:57;;;;;;;3.63;3.13;;;23.90;56.20;;;;;;5076409;28;20104;-67
2022/04/25 00:26:23;;;;;;;5.78;2.97;;;23.80;56.10;;;;;;5076279;28;20104;-67
2022/04/25 00:28:49;;;;;;;5.88;3.00;;;23.70;56.10;;;;;;5057965;28;20049;-66
2022/04/25 00:31:15;;;;;;;4.35;2.38;;;23.80;55.50;;;;;;5056310;28;20053;-66
2022/04/25 00:33:42;;;;;;;2.72;2.22;;;23.80;56.10;;;;;;5056221;28;20041;-66
2022/04/25 00:36:08;;;;;;;2.80;2.33;;;23.80;55.90;;;;;;5056279;28;20080;-67
2022/04/25 00:38:35;;;;;;;3.72;2.30;;;23.80;56.00;;;;;;5056359;28;20038;-67
2022/04/25 00:41:01;;;;;;;4.35;2.60;;;23.80;56.00;;;;;;5056313;28;20065;-66
2022/04/25 00:43:27;;;;;;;3.90;2.88;;;23.70;53.00;;;;;;5056235;28;20045;-67
2022/04/25 00:45:54;;;;;;;3.90;2.95;;;23.60;56.10;;;;;;5056132;28;20045;-67
2022/04/25 00:48:20;;;;;;;5.03;3.20;;;23.60;56.20;;;;;;5074548;28;20033;-66
2022/04/25 00:50:47;;;;;;;7.10;3.05;;;23.60;54.90;;;;;;5075284;28;20033;-67
2022/04/25 00:53:13;;;;;;;5.45;2.65;;;23.70;56.20;;;;;;5076062;28;20048;-66
2022/04/25 00:55:41;;;;;;;4.15;3.00;;;23.60;55.20;;;;;;5076070;28;20025;-66
2022/04/25 00:58:07;;;;;;;3.47;2.88;;;23.60;56.10;;;;;;5064252;28;20041;-67
2022/04/25 01:00:37;;;;;;;2.85;2.40;;;23.70;56.30;;;;;;5056123;28;20042;-67
2022/04/25 01:03:04;;;;;;;7.30;3.20;;;23.70;56.30;;;;;;5056366;28;20045;-66
2022/04/25 01:05:30;;;;;;;4.82;2.92;;;23.70;56.20;;;;;;5056010;28;20092;-67
2022/04/25 01:07:59;;;;;;;7.18;2.90;;;23.60;56.00;;;;;;5076083;28;20041;-67
2022/04/25 01:10:25;;;;;;;4.90;3.10;;;23.70;55.90;;;;;;5076000;28;20041;-65
2022/04/25 01:12:51;;;;;;;2.75;2.47;;;23.70;55.90;;;;;;5076032;28;20067;-66
2022/04/25 01:15:18;;;;;;;3.85;2.95;;;23.70;56.00;;;;;;5075757;28;20076;-66
2022/04/25 01:17:44;;;;;;;5.55;2.80;;;23.60;56.20;;;;;;5075153;28;20036;-65
2022/04/25 01:20:10;;;;;;;4.47;2.33;;;23.60;56.30;;;;;;5075876;28;20037;-66
2022/04/25 01:27:15;;;;;;;2.40;2.05;;;23.60;56.40;;;;;;5075891;28;20204;-66
2022/04/25 01:28:33;;;;;;;4.57;2.92;;;23.70;56.60;;;;;;5075978;28;20049;-65
2022/04/25 01:30:59;;;;;;;4.88;2.45;;;23.60;56.50;;;;;;5079404;28;20080;-66
2022/04/25 01:33:28;;;;;;;3.70;2.80;;;23.60;56.60;;;;;;5079377;28;20108;-66
2022/04/25 01:35:55;;;;;;;6.60;3.03;;;23.50;56.60;;;;;;5079145;28;20041;-66
2022/04/25 01:38:21;;;;;;;2.60;2.40;;;23.60;56.70;;;;;;5078588;28;20040;-66
2022/04/25 01:40:47;;;;;;;7.38;2.75;;;23.50;56.70;;;;;;5079331;28;20100;-66
2022/04/25 01:43:14;;;;;;;3.05;2.35;;;23.50;56.70;;;;;;5078893;28;20048;-66
2022/04/25 01:45:40;;;;;;;2.22;1.90;;;23.50;56.60;;;;;;5080963;28;20044;-66
2022/04/25 01:48:07;;;;;;;4.30;3.13;;;23.60;56.70;;;;;;5068034;28;20060;-66
2022/04/25 01:50:33;;;;;;;3.75;2.90;;;23.50;56.70;;;;;;5079141;28;20041;-66
2022/04/25 01:52:59;;;;;;;5.18;2.92;;;23.40;56.60;;;;;;5079226;28;20017;-66
2022/04/25 01:55:28;;;;;;;6.72;3.30;;;23.40;56.70;;;;;;5078050;28;20037;-66
2022/04/25 01:57:54;;;;;;;3.85;2.70;;;23.40;56.80;;;;;;5078838;28;20044;-66
2022/04/25 02:00:21;;;;;;;3.63;2.50;;;23.30;56.80;;;;;;5078360;28;20101;-66
2022/04/25 02:02:47;;;;;;;5.13;2.75;;;23.50;56.90;;;;;;5078318;28;20036;-66
2022/04/25 02:05:13;;;;;;;2.83;2.25;;;23.40;56.90;;;;;;5078771;28;20071;-66
2022/04/25 02:07:39;;;;;;;3.38;2.60;;;23.20;57.00;;;;;;5078388;28;20047;-66
2022/04/25 02:10:06;;;;;;;3.55;2.42;;;23.30;57.20;;;;;;5078613;28;20045;-67
2022/04/25 02:12:32;;;;;;;2.90;2.47;;;23.20;57.20;;;;;;5078497;28;20040;-66
2022/04/25 02:14:59;;;;;;;4.43;2.72;;;23.20;57.20;;;;;;5078297;28;20069;-65
2022/04/25 02:17:25;;;;;;;8.02;2.80;;;23.20;57.20;;;;;;5077958;28;20108;-66
2022/04/25 02:19:51;;;;;;;3.45;2.80;;;23.30;57.20;;;;;;5078740;28;20048;-67
2022/04/25 02:22:19;;;;;;;4.63;2.60;;;23.30;57.20;;;;;;5071440;28;20041;-66
2022/04/25 02:24:47;;;;;;;3.25;2.70;;;23.20;57.30;;;;;;5058384;28;20045;-66
2022/04/25 02:27:13;;;;;;;3.60;2.60;;;23.20;57.30;;;;;;5058024;28;20049;-66
2022/04/25 02:29:39;;;;;;;4.97;2.13;;;23.30;57.30;;;;;;5058776;28;20038;-66
2022/04/25 02:32:06;;;;;;;4.28;2.97;;;23.30;57.20;;;;;;5058402;28;20068;-66
2022/04/25 02:34:34;;;;;;;4.15;3.03;;;23.20;57.20;;;;;;5062576;28;20057;-66
2022/04/25 02:37:00;;;;;;;4.35;2.75;;;23.20;57.20;;;;;;5078321;28;20047;-65
2022/04/25 02:39:26;;;;;;;8.00;2.70;;;23.20;57.20;;;;;;5078162;28;20045;-66
2022/04/25 02:41:52;;;;;;;3.90;3.13;;;23.30;57.20;;;;;;5064110;28;20041;-66
2022/04/25 02:44:20;;;;;;;4.43;2.90;;;23.20;57.10;;;;;;5057523;28;20044;-67
2022/04/25 02:46:46;;;;;;;3.58;2.33;;;23.20;57.10;;;;;;5061543;28;20050;-66
2022/04/25 02:49:12;;;;;;;3.80;2.80;;;23.20;57.10;;;;;;5062947;28;20037;-66
2022/04/25 02:51:38;;;;;;;3.63;3.03;;;23.30;57.10;;;;;;5077644;28;20704;-67
2022/04/25 02:54:05;;;;;;;4.10;2.67;;;23.30;57.20;;;;;;5077651;28;20100;-67
2022/04/25 02:56:32;;;;;;;3.90;2.63;;;23.20;57.10;;;;;;5077176;28;20052;-66
2022/04/25 02:58:58;;;;;;;5.13;2.42;;;23.20;57.00;;;;;;5077735;28;20152;-66
2022/04/25 03:01:24;;;;;;;4.13;2.60;;;23.20;57.10;;;;;;5077800;28;20075;-66
2022/04/25 03:03:50;;;;;;;2.65;2.42;;;23.20;57.10;;;;;;5077742;28;20041;-66
2022/04/25 03:06:16;;;;;;;3.33;2.65;;;23.10;57.10;;;;;;5058653;28;20037;-67
2022/04/25 03:08:45;;;;;;;3.60;2.90;;;23.20;57.10;;;;;;5057732;28;20049;-66
2022/04/25 03:11:11;;;;;;;3.28;2.92;;;23.10;57.20;;;;;;5057347;28;20105;-66
2022/04/25 03:13:38;;;;;;;3.40;2.55;;;23.00;57.20;;;;;;5057247;28;20052;-66
2022/04/25 03:16:06;;;;;;;3.72;2.92;;;23.00;57.40;;;;;;5057488;28;20049;-66
2022/04/25 03:18:33;;;;;;;3.53;2.58;;;23.10;57.50;;;;;;5057660;28;20179;-65
2022/04/25 03:20:59;;;;;;;4.07;3.03;;;23.10;57.40;;;;;;5073707;28;20051;-65
2022/04/25 03:23:26;;;;;;;4.85;3.20;;;23.10;57.40;;;;;;5077329;28;20040;-66
2022/04/25 03:25:52;;;;;;;5.60;2.92;;;23.00;57.30;;;;;;5077172;28;20041;-66
2022/04/25 03:28:19;;;;;;;2.58;2.38;;;23.00;57.30;;;;;;5077182;28;20064;-67
2022/04/25 03:30:45;;;;;;;5.07;2.97;;;22.90;57.30;;;;;;5077251;28;20059;-67
2022/04/25 03:33:11;;;;;;;6.50;3.80;;;23.00;57.50;;;;;;5077122;28;20036;-68
2022/04/25 03:35:39;;;;;;;3.25;2.78;;;23.10;57.60;;;;;;5076867;28;20045;-68
2022/04/25 03:38:07;;;;;;;4.88;3.38;;;22.90;57.50;;;;;;5076486;28;20061;-67
2022/04/25 03:40:34;;;;;;;6.15;3.35;;;23.00;57.50;;;;;;5076697;28;20048;-66
2022/04/25 03:43:00;;;;;;;4.15;3.65;;;23.00;57.50;;;;;;5076502;28;20072;-66
2022/04/25 03:45:28;;;;;;;7.93;3.38;;;23.00;57.50;;;;;;5077004;28;20045;-67
2022/04/25 03:47:55;;;;;;;5.72;3.30;;;23.00;57.30;;;;;;5076954;28;20070;-66
2022/04/25 03:50:21;;;;;;;3.92;2.72;;;23.00;57.30;;;;;;5077029;28;20044;-67
2022/04/25 03:52:47;;;;;;;4.57;3.13;;;23.10;57.40;;;;;;5076510;28;20040;-67
2022/04/25 03:58:00;;;;;;;4.90;2.92;;;23.20;56.90;;;;;;5070592;28;20042;-66
2022/04/25 04:00:27;;;;;;;6.07;4.22;;;23.10;56.80;;;;;;5056965;28;20034;-66
2022/04/25 04:02:53;;;;;;;9.40;5.38;;;23.30;56.90;;;;;;5055305;28;20033;-67
2022/04/25 04:05:24;;;;;;;5.20;4.07;;;23.20;56.70;;;;;;5056258;28;20101;-66
2022/04/25 04:07:50;;;;;;;3.30;3.00;;;23.20;56.70;;;;;;5075226;28;20045;-67
2022/04/25 04:10:18;;;;;;;0.68;0.68;;;23.10;56.70;;;;;;5075606;28;20036;-69
2022/04/25 04:12:48;;;;;;;0.93;0.85;;;23.20;57.10;;;;;;5074666;28;20031;-70
2022/04/25 04:15:17;;;;;;;1.00;0.88;;;23.20;57.20;;;;;;5075643;28;20063;-70
2022/04/25 04:17:44;;;;;;;3.95;2.47;;;23.50;56.20;;;;;;5075133;28;20049;-70
2022/04/25 04:20:12;;;;;;;6.43;3.38;;;23.60;55.80;;;;;;5076039;28;20097;-71
2022/04/25 04:22:39;;;;;;;5.93;2.70;;;23.50;55.00;;;;;;5075974;28;20154;-69
2022/04/25 04:25:11;;;;;;;4.47;3.25;;;23.60;52.90;;;;;;5075502;28;20069;-69
2022/04/25 04:27:41;;;;;;;4.28;2.80;;;23.60;53.00;;;;;;5074602;28;20124;-69
2022/04/25 04:30:12;;;;;;;4.97;2.92;;;23.50;53.10;;;;;;5075272;28;20040;-69
2022/04/25 04:32:40;;;;;;;7.07;3.22;;;23.50;53.00;;;;;;5075138;28;20099;-69
2022/04/25 04:35:10;;;;;;;3.90;3.20;;;23.60;53.00;;;;;;5071084;28;20041;-70
2022/04/25 04:37:38;;;;;;;5.15;2.60;;;23.60;53.00;;;;;;5055612;28;20104;-69
2022/04/25 04:42:51;;;;;;;6.07;3.40;;;23.60;52.90;;;;;;5055439;28;20101;-69
2022/04/25 04:45:18;;;;;;;4.35;3.22;;;23.70;53.00;;;;;;5055458;28;20065;-68
2022/04/25 04:47:44;;;;;;;4.78;2.97;;;23.70;53.00;;;;;;5054990;28;20065;-69
2022/04/25 04:50:15;;;;;;;4.15;3.10;;;23.60;52.90;;;;;;5055648;28;20041;-68
2022/04/25 04:52:46;;;;;;;1.30;1.20;;;23.60;53.00;;;;;;5055644;28;20105;-67
2022/04/25 04:55:13;;;;;;;1.65;1.38;;;23.60;53.50;;;;;;5076833;28;20044;-69
2022/04/25 04:57:40;;;;;;;5.25;1.83;;;23.60;53.00;;;;;;5095627;28;20049;-68
2022/04/25 05:00:13;;;;;;;0.93;0.93;;;23.60;52.80;;;;;;5095610;28;20044;-72
2022/04/25 05:02:40;;;;;;;1.02;1.00;;;23.60;53.30;;;;;;5095808;28;20048;-69
2022/04/25 05:05:07;;;;;;;4.68;1.95;;;23.60;52.80;;;;;;5097752;28;20041;-72
2022/04/25 05:07:35;;;;;;;4.20;2.17;;;23.70;52.50;;;;;;5099647;28;20043;-73
2022/04/25 05:10:03;;;;;;;2.50;2.30;;;23.60;52.50;;;;;;5097394;28;20050;-71
2022/04/25 05:12:30;;;;;;;3.83;2.25;;;23.60;51.90;;;;;;5059294;28;20068;-70
2022/04/25 05:14:57;;;;;;;2.72;1.85;;;23.60;51.40;;;;;;5076913;28;20045;-72
2022/04/25 05:17:24;;;;;;;1.77;1.25;;;23.60;51.00;;;;;;5079284;28;20052;-72
2022/04/25 05:19:50;;;;;;;5.05;2.90;;;23.50;51.60;;;;;;5079111;28;20491;-72
2022/04/25 05:22:16;;;;;;;4.82;3.10;;;23.60;51.80;;;;;;5078730;28;20104;-69
2022/04/25 05:24:43;;;;;;;4.03;2.60;;;23.70;53.40;;;;;;5078218;28;20047;-68
2022/04/25 05:27:10;;;;;;;3.33;2.30;;;23.60;55.90;;;;;;5078704;28;20028;-67
2022/04/25 05:29:36;;;;;;;2.97;2.42;;;23.60;57.70;;;;;;5077190;28;20106;-66
2022/04/25 05:32:03;;;;;;;1.83;1.73;;;23.70;58.10;;;;;;5077553;28;20064;-69
2022/04/25 05:34:30;;;;;;;3.22;1.98;;;23.80;58.90;;;;;;5078203;28;20049;-68
2022/04/25 05:36:56;;;;;;;1.75;1.58;;;23.90;58.20;;;;;;5078423;28;20047;-69
2022/04/25 05:39:23;;;;;;;4.13;3.08;;;23.90;56.70;;;;;;5076490;28;20049;-70
2022/04/25 05:41:49;;;;;;;8.07;2.60;;;23.80;55.10;;;;;;5078000;28;20041;-69
2022/04/25 05:44:16;;;;;;;5.00;2.42;;;23.80;54.10;;;;;;5077484;28;20072;-70
2022/04/25 05:46:42;;;;;;;3.90;2.58;;;23.80;56.00;;;;;;5077839;28;20076;-72
2022/04/25 05:54:46;;;;;;;4.05;2.95;;;23.80;57.20;;;;;;5073006;28;20048;-71
2022/04/25 05:57:12;;;;;;;7.13;3.13;;;23.80;54.80;;;;;;5069919;28;20045;-68
2022/04/25 05:59:38;;;;;;;4.50;2.83;;;23.90;56.80;;;;;;5075301;28;20109;-70
2022/04/25 06:02:05;;;;;;;9.60;3.10;;;23.80;55.80;;;;;;5077600;28;20100;-70
2022/04/25 06:04:31;;;;;;;9.35;2.72;;;23.70;56.30;;;;;;5074296;28;20131;-69
2022/04/25 06:06:57;;;;;;;4.10;2.63;;;23.80;55.70;;;;;;5069470;28;20048;-69
2022/04/25 06:09:26;;;;;;;3.72;3.35;;;23.70;56.00;;;;;;5070947;28;20068;-69
2022/04/25 06:11:53;;;;;;;6.35;3.22;;;23.80;55.10;;;;;;5075036;28;20045;-71
2022/04/25 06:14:24;;;;;;;6.68;4.20;;;23.80;56.20;;;;;;5071656;28;20064;-68
2022/04/25 06:16:50;;;;;;;4.45;3.83;;;23.80;55.40;;;;;;5070088;28;20056;-72
2022/04/25 06:19:16;;;;;;;4.00;3.05;;;23.80;56.20;;;;;;5069558;28;20041;-70
2022/04/25 06:21:43;;;;;;;5.30;3.13;;;23.80;56.50;;;;;;5063138;28;20037;-68
2022/04/25 06:24:10;;;;;;;6.57;3.90;;;23.90;56.20;;;;;;5065800;28;20066;-69
2022/04/25 06:26:36;;;;;;;3.75;2.75;;;23.90;56.90;;;;;;5072379;28;20040;-69
2022/04/25 06:29:02;;;;;;;4.18;2.65;;;23.90;56.70;;;;;;5072549;28;20052;-69
2022/04/25 06:31:28;;;;;;;5.28;3.03;;;23.90;57.40;;;;;;5067117;28;20041;-71
2022/04/25 06:33:54;;;;;;;3.25;2.22;;;23.90;55.80;;;;;;5075853;28;20045;-70
2022/04/25 06:36:20;;;;;;;3.60;3.22;;;23.90;57.20;;;;;;5068079;28;20104;-70
2022/04/25 06:38:46;;;;;;;4.28;2.78;;;24.00;57.50;;;;;;5072780;28;20059;-71
2022/04/25 06:41:14;;;;;;;4.97;2.65;;;24.00;57.50;;;;;;5076477;28;20055;-70
2022/04/25 06:43:40;;;;;;;3.63;2.80;;;24.10;57.60;;;;;;5075552;28;20072;-73
2022/04/25 06:46:07;;;;;;;6.57;2.97;;;24.10;57.80;;;;;;5074227;28;20105;-70
2022/04/25 06:48:33;;;;;;;5.70;3.45;;;24.10;57.80;;;;;;5077292;28;20084;-74
2022/04/25 06:51:00;;;;;;;5.55;3.83;;;24.20;57.80;;;;;;5077357;28;20067;-72
2022/04/25 06:53:26;;;;;;;4.97;2.63;;;24.10;57.80;;;;;;5077355;28;20041;-74
2022/04/25 06:55:53;;;;;;;4.70;2.53;;;24.20;57.70;;;;;;5076900;28;20049;-75
2022/04/25 06:58:20;;;;;;;7.30;2.65;;;24.10;57.70;;;;;;5076771;28;20041;-74
2022/04/25 07:00:48;;;;;;;4.18;2.67;;;24.20;57.90;;;;;;5077186;28;20036;-72
2022/04/25 07:03:14;;;;;;;5.88;2.75;;;24.10;57.90;;;;;;5077308;28;20057;-73
2022/04/25 07:05:42;;;;;;;4.72;2.78;;;24.20;58.20;;;;;;5076253;28;20041;-73
2022/04/25 07:08:08;;;;;;;2.70;2.50;;;24.20;59.00;;;;;;5077149;28;20051;-71
2022/04/25 07:10:35;;;;;;;4.40;2.30;;;24.20;58.90;;;;;;5077082;28;20041;-72
2022/04/25 07:13:01;;;;;;;7.38;2.70;;;24.20;59.10;;;;;;5076839;28;20040;-72
2022/04/25 07:15:27;;;;;;;4.97;2.60;;;24.30;59.30;;;;;;5076794;28;20126;-71
2022/04/25 07:17:55;;;;;;;4.72;2.47;;;24.30;58.90;;;;;;5076949;28;20061;-72
2022/04/25 07:20:22;;;;;;;6.70;2.72;;;24.30;58.70;;;;;;5076479;28;20036;-73
2022/04/25 07:31:03;;;;;;;5.47;3.45;;;24.40;64.30;;;;;;5076317;28;20052;-70
2022/04/25 07:33:30;;;;;;;8.65;3.53;;;24.60;64.70;;;;;;5075372;28;20120;-70
2022/04/25 07:35:57;;;;;;;6.72;3.55;;;24.50;65.10;;;;;;5075408;28;20057;-67
2022/04/25 07:38:23;;;;;;;5.07;2.58;;;24.70;63.90;;;;;;5075858;28;20067;-67
2022/04/25 07:40:49;;;;;;;5.13;3.17;;;24.60;62.10;;;;;;5076047;28;20041;-65
2022/04/25 07:43:34;;;;;;;3.47;2.78;;;24.60;60.10;;;;;;5076348;28;20055;-65
2022/04/25 07:46:01;;;;;;;3.50;2.67;;;24.50;58.40;;;;;;5075984;28;20069;-65
2022/04/25 07:48:27;;;;;;;5.03;3.55;;;24.60;57.10;;;;;;5075958;28;20044;-66
2022/04/25 07:50:54;;;;;;;7.88;4.20;;;24.60;56.80;;;;;;5076307;28;20067;-67
2022/04/25 07:53:20;;;;;;;7.93;4.18;;;24.60;56.20;;;;;;5074876;28;20052;-68
2022/04/25 07:55:47;;;;;;;19.25;8.07;;;24.60;55.70;;;;;;5058313;28;20045;-67
2022/04/25 07:58:13;;;;;;;13.75;4.13;;;24.50;55.80;;;;;;5076157;28;20063;-68
2022/04/25 08:00:40;;;;;;;5.13;3.45;;;24.60;56.70;;;;;;5076007;28;20040;-67
2022/04/25 08:03:06;;;;;;;4.97;3.22;;;24.50;57.20;;;;;;5075426;28;20045;-68
2022/04/25 08:05:34;;;;;;;4.78;2.75;;;24.70;57.40;;;;;;5075935;28;20048;-68
2022/04/25 08:08:00;;;;;;;6.57;4.40;;;24.50;57.90;;;;;;5075845;28;20045;-68
2022/04/25 08:10:26;;;;;;;6.80;4.00;;;24.60;58.40;;;;;;5075987;28;20160;-67
2022/04/25 08:18:21;;;;;;;4.00;3.03;;;24.70;59.50;;;;;;5075926;28;20052;-69
2022/04/25 08:20:48;;;;;;;5.03;3.33;;;24.80;58.70;;;;;;5075964;28;20049;-69
2022/04/25 08:23:14;;;;;;;7.30;3.45;;;24.70;57.00;;;;;;5075471;28;20528;-69
2022/04/25 08:25:42;;;;;;;6.45;3.90;;;24.80;56.20;;;;;;5075662;28;20040;-69
2022/04/25 08:28:09;;;;;;;5.38;3.60;;;24.70;56.20;;;;;;5075466;28;20048;-69
2022/04/25 08:30:35;;;;;;;3.65;3.20;;;24.70;56.20;;;;;;5075702;28;20045;-68
2022/04/25 08:33:02;;;;;;;4.85;3.33;;;24.80;56.20;;;;;;5075048;28;20631;-68
2022/04/25 08:35:29;;;;;;;9.27;3.97;;;24.70;56.40;;;;;;5075472;28;20047;-70
2022/04/25 08:37:55;;;;;;;6.72;4.10;;;24.80;55.80;;;;;;5075551;28;20045;-68
2022/04/25 08:40:21;;;;;;;7.72;4.15;;;24.80;55.30;;;;;;5077975;28;20051;-68
2022/04/25 08:42:48;;;;;;;5.90;4.40;;;24.90;54.90;;;;;;5078809;28;20040;-68
2022/04/25 08:45:15;;;;;;;5.38;3.95;;;24.90;54.60;;;;;;5078966;28;20098;-69
2022/04/25 08:47:55;;;;;;;7.05;4.47;;;24.80;54.20;;;;;;5073425;28;20045;-71
2022/04/25 08:50:22;;;;;;;9.48;4.35;;;24.80;54.60;;;;;;5076533;28;20048;-68
2022/04/25 08:52:49;;;;;;;5.05;2.63;;;24.90;57.30;;;;;;5079098;28;20460;-69
2022/04/25 08:55:16;;;;;;;5.93;4.10;;;24.90;59.50;;;;;;5079092;28;20057;-69
2022/04/25 08:57:44;;;;;;;10.30;3.45;;;25.20;57.80;;;;;;5076386;28;20108;-69
2022/04/25 09:00:12;;;;;;;8.05;3.55;;;25.20;57.10;;;;;;5079229;28;20040;-69
2022/04/25 09:02:39;;;;;;;8.40;3.30;;;25.00;56.40;;;;;;5079143;28;20044;-69
2022/04/25 09:05:10;;;;;;;4.32;3.35;;;25.00;54.70;;;;;;5079110;28;20041;-70
2022/04/25 09:07:37;;;;;;;2.10;1.90;;;25.00;54.30;;;;;;5079519;28;20045;-67
2022/04/25 09:10:08;;;;;;;8.80;1.83;;;25.10;54.50;;;;;;5079303;28;20083;-68
2022/04/25 09:12:39;;;;;;;3.35;2.33;;;25.20;55.10;;;;;;5078296;28;20048;-67
2022/04/25 09:15:08;;;;;;;4.80;3.65;;;25.10;55.40;;;;;;5079090;28;20056;-66
2022/04/25 09:17:38;;;;;;;7.47;4.90;;;25.10;54.10;;;;;;5078429;28;20067;-69
2022/04/25 09:20:07;;;;;;;5.05;3.97;;;25.20;54.40;;;;;;5078652;28;20052;-69
2022/04/25 09:22:39;;;;;;;4.10;3.35;;;25.20;54.70;;;;;;5078731;28;20076;-70
2022/04/25 09:25:10;;;;;;;4.60;3.60;;;25.10;54.90;;;;;;5078854;28;20071;-69
2022/04/25 09:27:38;;;;;;;3.78;2.92;;;25.30;55.30;;;;;;5079245;28;20040;-70
2022/04/25 09:30:18;;;;;;;3.25;2.95;;;25.20;55.70;;;;;;5078832;28;20047;-68
2022/04/25 09:32:51;;;;;;;4.10;2.50;;;25.20;55.70;;;;;;5078584;28;20044;-69
2022/04/25 09:35:51;;;;;;;4.38;3.58;;;25.30;55.30;;;;;;5078190;28;20049;-69
2022/04/25 09:38:31;;;;;;;5.97;3.50;;;25.20;54.90;;;;;;5078806;28;20037;-70
2022/04/25 09:40:59;;;;;;;5.35;3.45;;;25.30;53.50;;;;;;5078309;28;20060;-68
2022/04/25 09:43:38;;;;;;;4.53;3.70;;;25.20;52.80;;;;;;5078433;28;20037;-68
2022/04/25 09:46:13;;;;;;;4.32;3.20;;;25.20;52.00;;;;;;5078480;28;20029;-69
2022/04/25 09:48:43;;;;;;;5.25;3.30;;;25.20;51.70;;;;;;5078457;28;20041;-68
2022/04/25 09:51:17;;;;;;;4.63;3.70;;;25.10;51.80;;;;;;5077699;28;20101;-68
2022/04/25 09:53:43;;;;;;;5.35;4.05;;;25.10;52.00;;;;;;5077669;28;20075;-68
2022/04/25 09:56:11;;;;;;;3.80;3.25;;;25.10;52.00;;;;;;5077594;28;20029;-68
2022/04/25 09:58:38;;;;;;;1.85;1.70;;;25.10;52.00;;;;;;5077541;28;20045;-67
2022/04/25 10:01:14;;;;;;;6.88;4.25;;;25.20;52.00;;;;;;5077868;28;20037;-69
2022/04/25 10:03:41;;;;;;;23.67;5.57;;;25.60;58.00;;;;;;5077958;28;20041;-73
2022/04/25 10:06:09;;;;;;;4.65;2.78;;;26.30;63.10;;;;;;5078006;28;20041;-73
2022/04/25 10:08:37;;;;;;;7.88;3.83;;;26.60;64.50;;;;;;5078238;28;20033;-72
2022/04/25 10:11:06;;;;;;;3.80;2.97;;;26.60;60.60;;;;;;5078204;28;20052;-72
2022/04/25 10:13:32;;;;;;;1.80;1.67;;;26.30;56.10;;;;;;5077904;28;20037;-72
2022/04/25 10:16:00;;;;;;;8.10;2.97;;;26.40;60.10;;;;;;5077330;28;20049;-77
2022/04/25 10:18:28;;;;;;;1.10;1.08;;;26.60;59.30;;;;;;5078474;28;20076;-77
2022/04/25 10:20:56;;;;;;;10.30;3.55;;;26.60;57.50;;;;;;5078064;28;20036;-79
2022/04/25 10:23:22;;;;;;;3.22;1.90;;;26.40;55.00;;;;;;5077123;28;20052;-78
2022/04/25 10:25:51;;;;;;;1.90;1.55;;;26.30;53.00;;;;;;5078000;28;20044;-71
2022/04/25 10:28:52;;;;;;;2.25;1.50;;;26.20;51.90;;;;;;5077938;28;20041;-72
2022/04/25 10:31:41;;;;;;;5.85;1.73;;;26.10;51.20;;;;;;5067226;28;20033;-71
2022/04/25 10:34:10;;;;;;;3.38;1.95;;;26.00;51.80;;;;;;5076532;28;20066;-73
2022/04/25 10:36:38;;;;;;;4.15;1.65;;;26.00;51.60;;;;;;5077471;28;20104;-73
2022/04/25 10:39:24;;;;;;;6.68;1.80;;;26.00;51.50;;;;;;5077536;28;20025;-72
2022/04/25 10:44:44;;;;;;;4.65;1.90;;;26.20;50.70;;;;;;5077317;28;20041;-73
2022/04/25 10:47:21;;;;;;;9.38;1.73;;;26.00;50.90;;;;;;5077465;28;20048;-72
2022/04/25 10:49:56;;;;;;;2.80;1.90;;;26.00;51.10;;;;;;5077371;28;20045;-72
2022/04/25 10:52:32;;;;;;;2.58;1.75;;;25.90;50.70;;;;;;5076966;28;20047;-73
2022/04/25 10:55:23;;;;;;;3.00;1.52;;;25.80;51.40;;;;;;5076621;28;20105;-73
2022/04/25 10:58:05;;;;;;;3.75;2.10;;;25.80;51.20;;;;;;5076162;28;20059;-73
2022/04/25 11:00:40;;;;;;;2.70;1.93;;;25.70;49.80;;;;;;5076206;28;20041;-72
2022/04/25 11:03:09;;;;;;;2.83;1.30;;;25.70;51.80;;;;;;5076134;28;20169;-72
2022/04/25 11:05:39;;;;;;;1.58;1.48;;;25.80;52.00;;;;;;5076896;28;20036;-74
2022/04/25 11:08:23;;;;;;;6.28;1.98;;;25.70;50.10;;;;;;5076392;28;20044;-71
2022/04/25 11:11:01;;;;;;;5.40;1.77;;;25.60;52.50;;;;;;5076283;28;20079;-71
2022/04/25 11:14:01;;;;;;;3.20;1.67;;;25.60;52.60;;;;;;5076930;28;20045;-72
2022/04/25 11:16:28;;;;;;;2.45;1.77;;;25.60;52.60;;;;;;5072499;28;20041;-71
2022/04/25 11:19:23;;;;;;;2.38;1.48;;;25.40;51.10;;;;;;5076450;28;20095;-71
2022/04/25 11:21:55;;;;;;;2.97;1.98;;;25.50;52.90;;;;;;5075834;28;20044;-70
2022/04/25 11:24:38;;;;;;;1.95;1.80;;;25.40;51.70;;;;;;5075935;28;20064;-72
2022/04/25 11:27:14;;;;;;;2.58;1.45;;;25.30;52.40;;;;;;5075231;28;20040;-72
2022/04/25 11:30:06;;;;;;;3.85;2.20;;;25.30;53.40;;;;;;5076912;28;20037;-73
2022/04/25 11:32:37;;;;;;;2.55;2.13;;;25.20;53.60;;;;;;5075927;28;20041;-71
2022/04/25 11:35:04;;;;;;;4.35;0.70;;;25.20;53.30;;;;;;5076544;28;20686;-71
2022/04/25 11:37:32;;;;;;;7.95;1.75;;;25.30;53.70;;;;;;5056463;28;20046;-73
2022/04/25 11:40:05;;;;;;;3.72;1.90;;;25.30;54.10;;;;;;5056196;28;20048;-73
2022/04/25 11:42:33;;;;;;;4.45;2.20;;;25.20;53.60;;;;;;5073325;28;20051;-71
2022/04/25 11:45:00;;;;;;;2.13;1.90;;;25.30;53.90;;;;;;5075207;28;20101;-71
2022/04/25 11:47:28;;;;;;;1.58;1.27;;;25.20;53.60;;;;;;5075908;28;20047;-71
2022/04/25 11:49:56;;;;;;;6.05;1.92;;;25.30;52.90;;;;;;5074877;28;20048;-70
2022/04/25 11:52:22;;;;;;;2.70;1.75;;;25.30;53.10;;;;;;5076237;28;20074;-71
2022/04/25 11:54:50;;;;;;;5.70;2.20;;;25.20;53.30;;;;;;5075180;28;20044;-73
2022/04/25 11:57:16;;;;;;;3.40;2.38;;;25.20;52.70;;;;;;5076199;28;20064;-72
2022/04/25 11:59:42;;;;;;;3.78;1.80;;;25.10;52.00;;;;;;5061949;28;20097;-72
2022/04/25 12:02:08;;;;;;;2.05;1.60;;;25.10;50.90;;;;;;5055497;28;20091;-71
2022/04/25 12:04:35;;;;;;;2.85;1.85;;;25.30;53.20;;;;;;5054002;28;20033;-73
2022/04/25 12:07:09;;;;;;;2.92;1.90;;;25.10;50.60;;;;;;5055578;28;20057;-71
2022/04/25 12:15:37;;;;;;;6.43;1.92;;;25.30;52.80;;;;;;5055487;28;20041;-71
2022/04/25 12:18:29;;;;;;;4.88;1.77;;;25.10;52.00;;;;;;5055741;28;20049;-72
2022/04/25 12:21:08;;;;;;;2.60;2.10;;;25.10;52.30;;;;;;5055483;28;20060;-72
2022/04/25 12:23:43;;;;;;;2.88;1.73;;;25.10;53.00;;;;;;5055701;28;20048;-71
2022/04/25 12:26:28;;;;;;;6.32;2.65;;;25.00;51.60;;;;;;5062438;28;20032;-71
2022/04/25 12:29:00;;;;;;;5.65;2.00;;;25.00;52.00;;;;;;5075212;28;20044;-71
2022/04/25 12:31:47;;;;;;;3.42;1.60;;;24.90;52.90;;;;;;5075737;28;20063;-72
2022/04/25 12:34:17;;;;;;;2.80;2.20;;;25.00;52.90;;;;;;5075523;28;20045;-71
2022/04/25 12:36:57;;;;;;;4.60;2.42;;;25.00;53.20;;;;;;5075507;28;20052;-72
2022/04/25 12:39:24;;;;;;;3.53;2.15;;;24.90;53.90;;;;;;5075623;28;20044;-71
2022/04/25 12:41:56;;;;;;;3.65;1.98;;;24.90;54.00;;;;;;5075720;28;20065;-72
2022/04/25 12:44:25;;;;;;;2.95;1.75;;;25.00;54.10;;;;;;5075676;28;20053;-71
2022/04/25 12:47:05;;;;;;;1.30;0.77;;;25.00;54.30;;;;;;5075675;28;20077;-70
2022/04/25 12:49:47;;;;;;;4.47;1.85;;;24.90;54.20;;;;;;5075490;28;20037;-75
2022/04/25 12:52:16;;;;;;;16.60;2.72;;;25.00;54.30;;;;;;5075544;28;20044;-70
2022/04/25 12:54:42;;;;;;;8.82;2.08;;;24.90;54.30;;;;;;5075498;28;20100;-71
2022/04/25 12:57:21;;;;;;;10.88;2.50;;;24.90;54.30;;;;;;5074701;28;20033;-72
2022/04/25 12:59:52;;;;;;;11.95;2.67;;;25.00;54.10;;;;;;5075117;28;20096;-72
2022/04/25 13:02:22;;;;;;;9.13;2.97;;;24.80;53.90;;;;;;5075519;28;20056;-72
2022/04/25 13:04:53;;;;;;;13.52;2.42;;;24.80;54.00;;;;;;5074662;28;20376;-71
2022/04/25 13:07:25;;;;;;;6.85;2.78;;;24.80;54.40;;;;;;5075411;28;20127;-72
2022/04/25 13:09:56;;;;;;;10.70;2.90;;;24.90;54.20;;;;;;5075079;28;20045;-71
2022/04/25 13:12:34;;;;;;;15.43;4.07;;;24.60;54.50;;;;;;5075447;28;20045;-71
2022/04/25 13:15:04;;;;;;;12.52;2.78;;;24.60;53.80;;;;;;5075498;28;20042;-72
2022/04/25 13:17:30;;;;;;;13.30;3.17;;;24.60;54.10;;;;;;5070656;28;20047;-71
2022/04/25 13:19:57;;;;;;;13.65;5.00;;;24.50;54.90;;;;;;5073807;28;20040;-71
2022/04/25 13:22:23;;;;;;;20.23;6.72;;;24.50;54.80;;;;;;5075018;28;20100;-72
2022/04/25 13:24:50;;;;;;;14.63;4.47;;;24.50;55.00;;;;;;5074340;28;20045;-72
2022/04/25 13:27:16;;;;;;;6.88;2.83;;;24.60;55.10;;;;;;5078732;28;20037;-68
2022/04/25 13:29:44;;;;;;;7.93;2.83;;;24.70;56.00;;;;;;5078673;28;20113;-69
2022/04/25 13:32:11;;;;;;;11.63;2.35;;;24.80;56.50;;;;;;5077899;28;20041;-66